sensor_id;sensor_type;location;lat;lon;timestamp;temperature;humidity
1760;DHT22;877;46.266;20.062;2023-08-08T00:00:51;13.90;86.00
1760;DHT22;877;46.266;20.062;2023-08-08T00:03:16;13.90;85.80
1760;DHT22;877;46.266;20.062;2023-08-08T00:05:42;13.80;86.40
1760;DHT22;877;46.266;20.062;2023-08-08T00:08:08;13.90;86.00
1760;DHT22;877;46.266;20.062;2023-08-08T00:10:34;13.80;86.10
1760;DHT22;877;46.266;20.062;2023-08-08T00:13:00;13.90;85.50
1760;DHT22;877;46.266;20.062;2023-08-08T00:15:26;13.90;85.30
1760;DHT22;877;46.266;20.062;2023-08-08T00:17:51;13.90;85.50
1760;DHT22;877;46.266;20.062;2023-08-08T00:20:17;13.90;85.40
1760;DHT22;877;46.266;20.062;2023-08-08T00:22:43;13.80;85.40
1760;DHT22;877;46.266;20.062;2023-08-08T00:25:08;13.80;86.00
1760;DHT22;877;46.266;20.062;2023-08-08T00:27:34;13.80;86.10
1760;DHT22;877;46.266;20.062;2023-08-08T00:30:01;13.70;86.60
1760;DHT22;877;46.266;20.062;2023-08-08T00:32:26;13.60;86.70
1760;DHT22;877;46.266;20.062;2023-08-08T00:34:52;13.60;87.00
1760;DHT22;877;46.266;20.062;2023-08-08T00:37:18;13.60;87.20
1760;DHT22;877;46.266;20.062;2023-08-08T00:39:45;13.60;87.20
1760;DHT22;877;46.266;20.062;2023-08-08T00:42:12;13.50;87.50
1760;DHT22;877;46.266;20.062;2023-08-08T00:44:40;13.60;87.10
1760;DHT22;877;46.266;20.062;2023-08-08T00:47:08;13.50;87.20
1760;DHT22;877;46.266;20.062;2023-08-08T00:49:35;13.50;87.60
1760;DHT22;877;46.266;20.062;2023-08-08T00:52:02;13.50;87.50
1760;DHT22;877;46.266;20.062;2023-08-08T00:54:28;13.50;87.70
1760;DHT22;877;46.266;20.062;2023-08-08T00:56:55;13.40;87.90
1760;DHT22;877;46.266;20.062;2023-08-08T00:59:21;13.40;88.20
1760;DHT22;877;46.266;20.062;2023-08-08T01:01:47;13.40;87.80
1760;DHT22;877;46.266;20.062;2023-08-08T01:04:13;13.40;87.70
1760;DHT22;877;46.266;20.062;2023-08-08T01:09:37;13.50;87.70
1760;DHT22;877;46.266;20.062;2023-08-08T01:12:06;13.40;87.90
1760;DHT22;877;46.266;20.062;2023-08-08T01:14:34;13.40;88.30
1760;DHT22;877;46.266;20.062;2023-08-08T01:17:00;13.30;88.40
1760;DHT22;877;46.266;20.062;2023-08-08T01:19:29;13.30;88.60
1760;DHT22;877;46.266;20.062;2023-08-08T01:22:01;13.30;88.60
1760;DHT22;877;46.266;20.062;2023-08-08T01:24:28;13.30;88.60
1760;DHT22;877;46.266;20.062;2023-08-08T01:27:02;13.20;89.30
1760;DHT22;877;46.266;20.062;2023-08-08T01:29:28;13.30;89.00
1760;DHT22;877;46.266;20.062;2023-08-08T01:31:54;13.20;89.10
1760;DHT22;877;46.266;20.062;2023-08-08T01:34:21;13.20;89.30
1760;DHT22;877;46.266;20.062;2023-08-08T01:39:21;13.00;90.70
1760;DHT22;877;46.266;20.062;2023-08-08T01:41:48;13.00;90.90
1760;DHT22;877;46.266;20.062;2023-08-08T01:44:15;13.00;90.50
1760;DHT22;877;46.266;20.062;2023-08-08T01:46:43;12.90;91.20
1760;DHT22;877;46.266;20.062;2023-08-08T01:49:09;12.90;91.10
1760;DHT22;877;46.266;20.062;2023-08-08T01:51:35;12.90;91.40
1760;DHT22;877;46.266;20.062;2023-08-08T01:54:01;12.90;90.80
1760;DHT22;877;46.266;20.062;2023-08-08T01:56:26;12.90;90.70
1760;DHT22;877;46.266;20.062;2023-08-08T01:58:52;12.90;90.70
1760;DHT22;877;46.266;20.062;2023-08-08T02:01:18;12.90;90.60
1760;DHT22;877;46.266;20.062;2023-08-08T02:03:44;12.90;90.60
1760;DHT22;877;46.266;20.062;2023-08-08T02:06:10;12.90;90.30
1760;DHT22;877;46.266;20.062;2023-08-08T02:08:35;13.00;90.00
1760;DHT22;877;46.266;20.062;2023-08-08T02:11:01;12.90;90.00
1760;DHT22;877;46.266;20.062;2023-08-08T02:13:27;12.90;90.10
1760;DHT22;877;46.266;20.062;2023-08-08T02:15:53;13.00;89.50
1760;DHT22;877;46.266;20.062;2023-08-08T02:18:18;13.00;89.50
1760;DHT22;877;46.266;20.062;2023-08-08T02:20:44;13.00;89.70
1760;DHT22;877;46.266;20.062;2023-08-08T02:23:10;12.90;90.10
1760;DHT22;877;46.266;20.062;2023-08-08T02:25:36;12.80;90.20
1760;DHT22;877;46.266;20.062;2023-08-08T02:28:02;12.90;90.30
1760;DHT22;877;46.266;20.062;2023-08-08T02:30:27;12.90;90.10
1760;DHT22;877;46.266;20.062;2023-08-08T02:32:53;12.90;90.10
1760;DHT22;877;46.266;20.062;2023-08-08T02:35:19;13.00;89.60
1760;DHT22;877;46.266;20.062;2023-08-08T02:37:45;12.90;89.80
1760;DHT22;877;46.266;20.062;2023-08-08T02:40:11;12.90;89.80
1760;DHT22;877;46.266;20.062;2023-08-08T02:42:36;12.90;90.10
1760;DHT22;877;46.266;20.062;2023-08-08T02:45:02;12.90;89.90
1760;DHT22;877;46.266;20.062;2023-08-08T02:47:28;12.90;90.20
1760;DHT22;877;46.266;20.062;2023-08-08T02:49:54;12.90;90.00
1760;DHT22;877;46.266;20.062;2023-08-08T02:52:19;12.90;89.80
1760;DHT22;877;46.266;20.062;2023-08-08T02:54:45;12.90;89.80
1760;DHT22;877;46.266;20.062;2023-08-08T02:57:11;12.90;90.00
1760;DHT22;877;46.266;20.062;2023-08-08T02:59:37;12.90;89.80
1760;DHT22;877;46.266;20.062;2023-08-08T03:02:04;12.90;90.10
1760;DHT22;877;46.266;20.062;2023-08-08T03:04:30;12.90;90.30
1760;DHT22;877;46.266;20.062;2023-08-08T03:06:56;12.80;90.60
1760;DHT22;877;46.266;20.062;2023-08-08T03:09:22;12.80;91.00
1760;DHT22;877;46.266;20.062;2023-08-08T03:11:47;12.80;91.00
1760;DHT22;877;46.266;20.062;2023-08-08T03:14:13;12.80;90.80
1760;DHT22;877;46.266;20.062;2023-08-08T03:16:39;12.80;90.90
1760;DHT22;877;46.266;20.062;2023-08-08T03:19:05;12.70;91.30
1760;DHT22;877;46.266;20.062;2023-08-08T03:21:31;12.70;91.60
1760;DHT22;877;46.266;20.062;2023-08-08T03:23:57;12.70;91.30
1760;DHT22;877;46.266;20.062;2023-08-08T03:26:23;12.70;91.20
1760;DHT22;877;46.266;20.062;2023-08-08T03:28:49;12.70;91.30
1760;DHT22;877;46.266;20.062;2023-08-08T03:31:16;12.80;90.80
1760;DHT22;877;46.266;20.062;2023-08-08T03:33:43;12.90;90.50
1760;DHT22;877;46.266;20.062;2023-08-08T03:36:09;12.80;90.60
1760;DHT22;877;46.266;20.062;2023-08-08T03:38:35;12.80;90.50
1760;DHT22;877;46.266;20.062;2023-08-08T03:41:03;12.80;90.60
1760;DHT22;877;46.266;20.062;2023-08-08T03:43:29;12.80;90.60
1760;DHT22;877;46.266;20.062;2023-08-08T03:45:55;12.80;90.80
1760;DHT22;877;46.266;20.062;2023-08-08T03:48:21;12.90;90.20
1760;DHT22;877;46.266;20.062;2023-08-08T03:50:47;12.90;89.90
1760;DHT22;877;46.266;20.062;2023-08-08T03:53:13;13.00;89.20
1760;DHT22;877;46.266;20.062;2023-08-08T03:55:38;13.10;89.10
1760;DHT22;877;46.266;20.062;2023-08-08T03:58:04;13.10;88.60
1760;DHT22;877;46.266;20.062;2023-08-08T04:00:31;13.10;88.70
1760;DHT22;877;46.266;20.062;2023-08-08T04:02:57;13.10;88.80
1760;DHT22;877;46.266;20.062;2023-08-08T04:05:23;13.20;88.20
1760;DHT22;877;46.266;20.062;2023-08-08T04:07:49;13.20;88.30
1760;DHT22;877;46.266;20.062;2023-08-08T04:10:15;13.30;88.10
1760;DHT22;877;46.266;20.062;2023-08-08T04:12:40;13.30;88.10
1760;DHT22;877;46.266;20.062;2023-08-08T04:15:07;13.30;88.10
1760;DHT22;877;46.266;20.062;2023-08-08T04:17:33;13.30;87.80
1760;DHT22;877;46.266;20.062;2023-08-08T04:19:59;13.40;87.20
1760;DHT22;877;46.266;20.062;2023-08-08T04:22:24;13.50;86.60
1760;DHT22;877;46.266;20.062;2023-08-08T04:24:50;13.60;86.20
1760;DHT22;877;46.266;20.062;2023-08-08T04:27:16;13.60;86.20
1760;DHT22;877;46.266;20.062;2023-08-08T04:29:42;13.60;85.60
1760;DHT22;877;46.266;20.062;2023-08-08T04:32:08;13.70;85.60
1760;DHT22;877;46.266;20.062;2023-08-08T04:34:34;13.70;85.80
1760;DHT22;877;46.266;20.062;2023-08-08T04:36:59;13.80;85.70
1760;DHT22;877;46.266;20.062;2023-08-08T04:39:25;13.80;85.30
1760;DHT22;877;46.266;20.062;2023-08-08T04:41:51;13.90;85.10
1760;DHT22;877;46.266;20.062;2023-08-08T04:44:17;14.00;85.00
1760;DHT22;877;46.266;20.062;2023-08-08T04:46:43;14.00;83.90
1760;DHT22;877;46.266;20.062;2023-08-08T04:49:08;14.10;83.40
1760;DHT22;877;46.266;20.062;2023-08-08T04:51:34;14.20;83.20
1760;DHT22;877;46.266;20.062;2023-08-08T04:54:00;14.20;82.90
1760;DHT22;877;46.266;20.062;2023-08-08T04:56:26;14.20;83.40
1760;DHT22;877;46.266;20.062;2023-08-08T04:58:52;14.30;83.20
1760;DHT22;877;46.266;20.062;2023-08-08T05:01:18;14.30;82.60
1760;DHT22;877;46.266;20.062;2023-08-08T05:03:46;14.40;82.40
1760;DHT22;877;46.266;20.062;2023-08-08T05:06:12;14.50;82.50
1760;DHT22;877;46.266;20.062;2023-08-08T05:08:37;14.60;82.10
1760;DHT22;877;46.266;20.062;2023-08-08T05:11:03;14.60;81.70
1760;DHT22;877;46.266;20.062;2023-08-08T05:13:29;14.70;81.50
1760;DHT22;877;46.266;20.062;2023-08-08T05:15:55;14.80;81.30
1760;DHT22;877;46.266;20.062;2023-08-08T05:18:21;14.90;80.60
1760;DHT22;877;46.266;20.062;2023-08-08T05:20:47;14.90;80.50
1760;DHT22;877;46.266;20.062;2023-08-08T05:23:12;15.10;80.30
1760;DHT22;877;46.266;20.062;2023-08-08T05:25:38;15.00;80.00
1760;DHT22;877;46.266;20.062;2023-08-08T05:28:04;15.10;80.00
1760;DHT22;877;46.266;20.062;2023-08-08T05:30:30;15.20;79.80
1760;DHT22;877;46.266;20.062;2023-08-08T05:32:56;15.20;79.80
1760;DHT22;877;46.266;20.062;2023-08-08T05:35:22;15.20;78.10
1760;DHT22;877;46.266;20.062;2023-08-08T05:37:48;15.30;79.20
1760;DHT22;877;46.266;20.062;2023-08-08T05:40:13;15.40;78.80
1760;DHT22;877;46.266;20.062;2023-08-08T05:42:39;15.50;78.60
1760;DHT22;877;46.266;20.062;2023-08-08T05:45:06;15.50;77.70
1760;DHT22;877;46.266;20.062;2023-08-08T05:47:32;15.60;76.60
1760;DHT22;877;46.266;20.062;2023-08-08T05:49:58;15.70;76.40
1760;DHT22;877;46.266;20.062;2023-08-08T05:52:24;15.80;75.70
1760;DHT22;877;46.266;20.062;2023-08-08T05:54:50;15.80;75.80
1760;DHT22;877;46.266;20.062;2023-08-08T05:57:16;15.70;75.80
1760;DHT22;877;46.266;20.062;2023-08-08T05:59:42;15.90;75.80
1760;DHT22;877;46.266;20.062;2023-08-08T06:02:10;15.80;74.90
1760;DHT22;877;46.266;20.062;2023-08-08T06:04:36;15.90;75.80
1760;DHT22;877;46.266;20.062;2023-08-08T06:07:02;16.10;75.40
1760;DHT22;877;46.266;20.062;2023-08-08T06:09:27;16.10;74.90
1760;DHT22;877;46.266;20.062;2023-08-08T06:11:53;16.20;74.60
1760;DHT22;877;46.266;20.062;2023-08-08T06:14:19;16.20;74.80
1760;DHT22;877;46.266;20.062;2023-08-08T06:16:45;16.40;74.00
1760;DHT22;877;46.266;20.062;2023-08-08T06:19:12;16.50;74.00
1760;DHT22;877;46.266;20.062;2023-08-08T06:21:41;16.60;72.70
1760;DHT22;877;46.266;20.062;2023-08-08T06:24:06;16.50;72.30
1760;DHT22;877;46.266;20.062;2023-08-08T06:26:32;16.50;72.60
1760;DHT22;877;46.266;20.062;2023-08-08T06:28:58;16.70;72.30
1760;DHT22;877;46.266;20.062;2023-08-08T06:31:24;16.80;71.90
1760;DHT22;877;46.266;20.062;2023-08-08T06:33:50;16.80;71.50
1760;DHT22;877;46.266;20.062;2023-08-08T06:36:15;16.90;71.30
1760;DHT22;877;46.266;20.062;2023-08-08T06:38:41;16.90;71.50
1760;DHT22;877;46.266;20.062;2023-08-08T06:41:08;17.00;71.40
1760;DHT22;877;46.266;20.062;2023-08-08T06:43:34;17.10;71.20
1760;DHT22;877;46.266;20.062;2023-08-08T06:45:59;17.10;71.00
1760;DHT22;877;46.266;20.062;2023-08-08T06:48:27;17.10;69.30
1760;DHT22;877;46.266;20.062;2023-08-08T06:50:52;17.20;70.50
1760;DHT22;877;46.266;20.062;2023-08-08T06:53:18;17.30;69.20
1760;DHT22;877;46.266;20.062;2023-08-08T06:55:44;17.50;69.40
1760;DHT22;877;46.266;20.062;2023-08-08T06:58:10;17.60;67.70
1760;DHT22;877;46.266;20.062;2023-08-08T07:00:36;17.70;67.90
1760;DHT22;877;46.266;20.062;2023-08-08T07:03:01;18.00;67.30
1760;DHT22;877;46.266;20.062;2023-08-08T07:05:27;17.80;67.20
1760;DHT22;877;46.266;20.062;2023-08-08T07:07:53;17.70;68.10
1760;DHT22;877;46.266;20.062;2023-08-08T07:10:19;17.70;68.10
1760;DHT22;877;46.266;20.062;2023-08-08T07:12:46;17.90;67.50
1760;DHT22;877;46.266;20.062;2023-08-08T07:15:12;18.10;66.50
1760;DHT22;877;46.266;20.062;2023-08-08T07:17:38;18.60;65.10
1760;DHT22;877;46.266;20.062;2023-08-08T07:20:04;18.50;64.70
1760;DHT22;877;46.266;20.062;2023-08-08T07:22:31;18.20;65.20
1760;DHT22;877;46.266;20.062;2023-08-08T07:24:58;18.50;63.90
1760;DHT22;877;46.266;20.062;2023-08-08T07:27:26;18.60;64.50
1760;DHT22;877;46.266;20.062;2023-08-08T07:29:52;18.70;63.70
1760;DHT22;877;46.266;20.062;2023-08-08T07:32:17;18.80;63.20
1760;DHT22;877;46.266;20.062;2023-08-08T07:34:43;19.30;61.80
1760;DHT22;877;46.266;20.062;2023-08-08T07:37:09;19.20;62.30
1760;DHT22;877;46.266;20.062;2023-08-08T07:39:35;19.30;61.50
1760;DHT22;877;46.266;20.062;2023-08-08T07:42:01;18.90;61.70
1760;DHT22;877;46.266;20.062;2023-08-08T07:44:27;18.90;63.50
1760;DHT22;877;46.266;20.062;2023-08-08T07:46:52;19.50;60.80
1760;DHT22;877;46.266;20.062;2023-08-08T07:49:18;19.10;60.90
1760;DHT22;877;46.266;20.062;2023-08-08T07:51:44;19.30;60.10
1760;DHT22;877;46.266;20.062;2023-08-08T07:54:10;19.60;61.50
1760;DHT22;877;46.266;20.062;2023-08-08T07:56:36;19.90;58.70
1760;DHT22;877;46.266;20.062;2023-08-08T07:59:03;20.60;58.60
1760;DHT22;877;46.266;20.062;2023-08-08T08:01:29;19.70;58.90
1760;DHT22;877;46.266;20.062;2023-08-08T08:03:55;20.10;57.70
1760;DHT22;877;46.266;20.062;2023-08-08T08:06:21;19.90;58.60
1760;DHT22;877;46.266;20.062;2023-08-08T08:08:46;20.30;58.60
1760;DHT22;877;46.266;20.062;2023-08-08T08:11:12;20.60;57.40
1760;DHT22;877;46.266;20.062;2023-08-08T08:13:42;20.50;57.70
1760;DHT22;877;46.266;20.062;2023-08-08T08:16:08;19.80;58.70
1760;DHT22;877;46.266;20.062;2023-08-08T08:18:34;20.20;57.20
1760;DHT22;877;46.266;20.062;2023-08-08T08:21:00;20.20;57.20
1760;DHT22;877;46.266;20.062;2023-08-08T08:23:26;20.60;56.40
1760;DHT22;877;46.266;20.062;2023-08-08T08:25:52;20.80;55.30
1760;DHT22;877;46.266;20.062;2023-08-08T08:28:18;21.40;55.60
1760;DHT22;877;46.266;20.062;2023-08-08T08:30:44;20.80;54.80
1760;DHT22;877;46.266;20.062;2023-08-08T08:33:10;20.80;55.30
1760;DHT22;877;46.266;20.062;2023-08-08T08:35:36;21.30;55.50
1760;DHT22;877;46.266;20.062;2023-08-08T08:38:03;21.50;53.50
1760;DHT22;877;46.266;20.062;2023-08-08T08:40:32;21.50;51.90
1760;DHT22;877;46.266;20.062;2023-08-08T08:43:00;21.20;51.10
1760;DHT22;877;46.266;20.062;2023-08-08T08:45:27;21.70;52.80
1760;DHT22;877;46.266;20.062;2023-08-08T08:47:56;22.30;51.50
1760;DHT22;877;46.266;20.062;2023-08-08T08:50:29;22.00;50.80
1760;DHT22;877;46.266;20.062;2023-08-08T08:52:59;22.10;50.20
1760;DHT22;877;46.266;20.062;2023-08-08T08:55:25;20.90;53.00
1760;DHT22;877;46.266;20.062;2023-08-08T08:57:51;21.60;51.40
1760;DHT22;877;46.266;20.062;2023-08-08T09:00:18;21.30;52.40
1760;DHT22;877;46.266;20.062;2023-08-08T09:02:44;21.30;52.50
1760;DHT22;877;46.266;20.062;2023-08-08T09:05:12;21.50;51.40
1760;DHT22;877;46.266;20.062;2023-08-08T09:07:37;21.80;52.30
1760;DHT22;877;46.266;20.062;2023-08-08T09:10:04;21.30;53.30
1760;DHT22;877;46.266;20.062;2023-08-08T09:12:31;21.90;51.60
1760;DHT22;877;46.266;20.062;2023-08-08T09:14:58;21.40;51.40
1760;DHT22;877;46.266;20.062;2023-08-08T09:17:27;21.70;51.90
1760;DHT22;877;46.266;20.062;2023-08-08T09:19:54;21.30;51.50
1760;DHT22;877;46.266;20.062;2023-08-08T09:22:20;21.70;51.40
1760;DHT22;877;46.266;20.062;2023-08-08T09:24:48;22.80;51.20
1760;DHT22;877;46.266;20.062;2023-08-08T09:27:14;23.20;47.60
1760;DHT22;877;46.266;20.062;2023-08-08T09:29:41;21.90;49.40
1760;DHT22;877;46.266;20.062;2023-08-08T09:32:07;22.70;50.40
1760;DHT22;877;46.266;20.062;2023-08-08T09:34:34;22.80;49.10
1760;DHT22;877;46.266;20.062;2023-08-08T09:37:00;23.00;47.10
1760;DHT22;877;46.266;20.062;2023-08-08T09:39:27;23.40;46.50
1760;DHT22;877;46.266;20.062;2023-08-08T09:41:55;22.50;48.60
1760;DHT22;877;46.266;20.062;2023-08-08T09:44:26;22.50;50.20
1760;DHT22;877;46.266;20.062;2023-08-08T09:46:53;23.20;47.60
1760;DHT22;877;46.266;20.062;2023-08-08T09:49:19;23.40;47.10
1760;DHT22;877;46.266;20.062;2023-08-08T09:51:48;22.30;47.50
1760;DHT22;877;46.266;20.062;2023-08-08T09:54:14;21.90;48.80
1760;DHT22;877;46.266;20.062;2023-08-08T09:56:40;22.40;48.30
1760;DHT22;877;46.266;20.062;2023-08-08T09:59:09;22.20;48.40
1760;DHT22;877;46.266;20.062;2023-08-08T10:01:35;22.70;49.50
1760;DHT22;877;46.266;20.062;2023-08-08T10:04:06;22.70;49.40
1760;DHT22;877;46.266;20.062;2023-08-08T10:06:32;22.60;47.80
1760;DHT22;877;46.266;20.062;2023-08-08T10:08:59;23.20;46.40
1760;DHT22;877;46.266;20.062;2023-08-08T10:11:26;24.20;45.10
1760;DHT22;877;46.266;20.062;2023-08-08T10:13:53;23.70;46.30
1760;DHT22;877;46.266;20.062;2023-08-08T10:16:19;23.30;45.70
1760;DHT22;877;46.266;20.062;2023-08-08T10:18:56;23.50;43.60
1760;DHT22;877;46.266;20.062;2023-08-08T10:21:24;23.80;42.40
1760;DHT22;877;46.266;20.062;2023-08-08T10:24:04;23.50;43.70
1760;DHT22;877;46.266;20.062;2023-08-08T10:26:31;23.30;44.40
1760;DHT22;877;46.266;20.062;2023-08-08T10:28:58;22.80;45.60
1760;DHT22;877;46.266;20.062;2023-08-08T10:31:24;23.50;45.10
1760;DHT22;877;46.266;20.062;2023-08-08T10:34:01;23.00;43.40
1760;DHT22;877;46.266;20.062;2023-08-08T10:36:51;22.40;46.20
1760;DHT22;877;46.266;20.062;2023-08-08T10:39:19;23.10;44.50
1760;DHT22;877;46.266;20.062;2023-08-08T10:41:50;23.00;45.60
1760;DHT22;877;46.266;20.062;2023-08-08T10:44:23;23.90;44.00
1760;DHT22;877;46.266;20.062;2023-08-08T10:46:50;23.20;44.50
1760;DHT22;877;46.266;20.062;2023-08-08T10:49:17;23.80;42.10
1760;DHT22;877;46.266;20.062;2023-08-08T10:51:43;23.20;43.00
1760;DHT22;877;46.266;20.062;2023-08-08T10:54:14;24.20;43.90
1760;DHT22;877;46.266;20.062;2023-08-08T10:56:47;23.90;43.90
1760;DHT22;877;46.266;20.062;2023-08-08T10:59:18;25.50;42.70
1760;DHT22;877;46.266;20.062;2023-08-08T11:01:49;27.00;40.10
1760;DHT22;877;46.266;20.062;2023-08-08T11:04:19;27.40;37.50
1760;DHT22;877;46.266;20.062;2023-08-08T11:06:45;25.60;39.40
1760;DHT22;877;46.266;20.062;2023-08-08T11:09:13;26.20;40.60
1760;DHT22;877;46.266;20.062;2023-08-08T11:11:41;26.10;38.50
1760;DHT22;877;46.266;20.062;2023-08-08T11:14:18;26.60;38.70
1760;DHT22;877;46.266;20.062;2023-08-08T11:16:46;27.60;38.40
1760;DHT22;877;46.266;20.062;2023-08-08T11:19:12;27.60;34.60
1760;DHT22;877;46.266;20.062;2023-08-08T11:21:41;25.60;38.30
1760;DHT22;877;46.266;20.062;2023-08-08T11:24:08;25.90;39.20
1760;DHT22;877;46.266;20.062;2023-08-08T11:26:38;25.20;36.50
1760;DHT22;877;46.266;20.062;2023-08-08T11:29:05;23.90;39.20
1760;DHT22;877;46.266;20.062;2023-08-08T11:31:31;24.10;40.20
1760;DHT22;877;46.266;20.062;2023-08-08T11:33:59;24.60;38.00
1760;DHT22;877;46.266;20.062;2023-08-08T11:36:26;23.60;40.40
1760;DHT22;877;46.266;20.062;2023-08-08T11:38:54;23.40;40.40
1760;DHT22;877;46.266;20.062;2023-08-08T11:41:23;23.60;37.80
1760;DHT22;877;46.266;20.062;2023-08-08T11:43:52;25.00;38.50
1760;DHT22;877;46.266;20.062;2023-08-08T11:46:22;24.90;38.80
1760;DHT22;877;46.266;20.062;2023-08-08T11:48:48;24.50;40.20
1760;DHT22;877;46.266;20.062;2023-08-08T11:51:15;25.60;40.80
1760;DHT22;877;46.266;20.062;2023-08-08T11:53:50;26.50;37.50
1760;DHT22;877;46.266;20.062;2023-08-08T11:56:18;25.40;38.00
1760;DHT22;877;46.266;20.062;2023-08-08T11:58:44;23.50;40.80
1760;DHT22;877;46.266;20.062;2023-08-08T12:01:10;24.30;40.60
1760;DHT22;877;46.266;20.062;2023-08-08T12:03:39;23.90;39.70
1760;DHT22;877;46.266;20.062;2023-08-08T12:06:31;25.20;38.80
1760;DHT22;877;46.266;20.062;2023-08-08T12:08:57;25.50;40.90
1760;DHT22;877;46.266;20.062;2023-08-08T12:11:23;25.20;39.30
1760;DHT22;877;46.266;20.062;2023-08-08T12:13:48;24.70;39.40
1760;DHT22;877;46.266;20.062;2023-08-08T12:16:14;24.80;42.40
1760;DHT22;877;46.266;20.062;2023-08-08T12:18:43;25.10;41.30
1760;DHT22;877;46.266;20.062;2023-08-08T12:21:09;25.40;41.50
1760;DHT22;877;46.266;20.062;2023-08-08T12:23:36;24.90;39.30
1760;DHT22;877;46.266;20.062;2023-08-08T12:26:06;24.40;40.90
1760;DHT22;877;46.266;20.062;2023-08-08T12:28:33;24.50;42.40
1760;DHT22;877;46.266;20.062;2023-08-08T12:30:59;25.80;39.90
1760;DHT22;877;46.266;20.062;2023-08-08T12:33:25;25.30;38.80
1760;DHT22;877;46.266;20.062;2023-08-08T12:35:51;25.50;39.30
1760;DHT22;877;46.266;20.062;2023-08-08T12:38:17;24.40;40.70
1760;DHT22;877;46.266;20.062;2023-08-08T12:40:43;25.00;39.50
1760;DHT22;877;46.266;20.062;2023-08-08T12:43:10;24.90;40.20
1760;DHT22;877;46.266;20.062;2023-08-08T12:45:39;26.60;39.90
1760;DHT22;877;46.266;20.062;2023-08-08T12:48:05;26.60;38.90
1760;DHT22;877;46.266;20.062;2023-08-08T12:50:32;25.30;39.00
1760;DHT22;877;46.266;20.062;2023-08-08T12:52:58;24.40;42.00
1760;DHT22;877;46.266;20.062;2023-08-08T12:55:23;25.30;41.60
1760;DHT22;877;46.266;20.062;2023-08-08T12:57:49;24.90;40.60
1760;DHT22;877;46.266;20.062;2023-08-08T13:00:15;25.40;39.20
1760;DHT22;877;46.266;20.062;2023-08-08T13:02:42;25.30;39.70
1760;DHT22;877;46.266;20.062;2023-08-08T13:05:08;24.90;40.80
1760;DHT22;877;46.266;20.062;2023-08-08T13:07:35;24.60;42.40
1760;DHT22;877;46.266;20.062;2023-08-08T13:10:01;24.50;41.40
1760;DHT22;877;46.266;20.062;2023-08-08T13:12:27;24.80;40.70
1760;DHT22;877;46.266;20.062;2023-08-08T13:14:53;24.70;38.60
1760;DHT22;877;46.266;20.062;2023-08-08T13:17:19;25.30;40.20
1760;DHT22;877;46.266;20.062;2023-08-08T13:19:45;25.50;37.50
1760;DHT22;877;46.266;20.062;2023-08-08T13:22:11;25.20;39.20
1760;DHT22;877;46.266;20.062;2023-08-08T13:24:38;25.90;38.10
1760;DHT22;877;46.266;20.062;2023-08-08T13:27:04;25.40;40.00
1760;DHT22;877;46.266;20.062;2023-08-08T13:29:30;24.70;40.10
1760;DHT22;877;46.266;20.062;2023-08-08T13:31:56;24.10;41.30
1760;DHT22;877;46.266;20.062;2023-08-08T13:34:22;24.20;40.40
1760;DHT22;877;46.266;20.062;2023-08-08T13:36:47;25.80;39.00
1760;DHT22;877;46.266;20.062;2023-08-08T13:39:13;26.50;37.30
1760;DHT22;877;46.266;20.062;2023-08-08T13:41:39;25.40;36.60
1760;DHT22;877;46.266;20.062;2023-08-08T13:44:05;25.40;36.90
1760;DHT22;877;46.266;20.062;2023-08-08T13:46:33;25.90;39.30
1760;DHT22;877;46.266;20.062;2023-08-08T13:48:58;27.10;38.00
1760;DHT22;877;46.266;20.062;2023-08-08T13:51:24;27.90;36.70
1760;DHT22;877;46.266;20.062;2023-08-08T13:53:50;25.80;36.30
1760;DHT22;877;46.266;20.062;2023-08-08T13:56:17;27.00;36.50
1760;DHT22;877;46.266;20.062;2023-08-08T13:58:42;28.30;36.90
1760;DHT22;877;46.266;20.062;2023-08-08T14:01:08;29.30;37.80
1760;DHT22;877;46.266;20.062;2023-08-08T14:03:34;28.20;36.70
1760;DHT22;877;46.266;20.062;2023-08-08T14:06:00;25.60;36.10
1760;DHT22;877;46.266;20.062;2023-08-08T14:08:26;25.80;37.20
1760;DHT22;877;46.266;20.062;2023-08-08T14:10:51;25.40;38.30
1760;DHT22;877;46.266;20.062;2023-08-08T14:13:17;25.50;37.20
1760;DHT22;877;46.266;20.062;2023-08-08T14:15:45;24.90;37.60
1760;DHT22;877;46.266;20.062;2023-08-08T14:18:11;25.40;37.00
1760;DHT22;877;46.266;20.062;2023-08-08T14:20:37;25.20;37.70
1760;DHT22;877;46.266;20.062;2023-08-08T14:23:04;25.70;37.90
1760;DHT22;877;46.266;20.062;2023-08-08T14:25:29;25.80;37.70
1760;DHT22;877;46.266;20.062;2023-08-08T14:27:55;26.70;34.60
1760;DHT22;877;46.266;20.062;2023-08-08T14:30:22;26.90;35.30
1760;DHT22;877;46.266;20.062;2023-08-08T14:32:51;27.40;34.10
1760;DHT22;877;46.266;20.062;2023-08-08T14:35:17;27.60;34.00
1760;DHT22;877;46.266;20.062;2023-08-08T14:37:43;27.30;33.10
1760;DHT22;877;46.266;20.062;2023-08-08T14:40:09;27.00;35.60
1760;DHT22;877;46.266;20.062;2023-08-08T14:42:35;26.90;34.80
1760;DHT22;877;46.266;20.062;2023-08-08T14:45:00;27.00;34.70
1760;DHT22;877;46.266;20.062;2023-08-08T14:47:26;27.10;34.50
1760;DHT22;877;46.266;20.062;2023-08-08T14:49:52;28.20;32.30
1760;DHT22;877;46.266;20.062;2023-08-08T14:52:18;28.10;32.70
1760;DHT22;877;46.266;20.062;2023-08-08T14:54:44;29.00;34.30
1760;DHT22;877;46.266;20.062;2023-08-08T14:57:10;30.00;33.10
1760;DHT22;877;46.266;20.062;2023-08-08T14:59:36;30.90;31.10
1760;DHT22;877;46.266;20.062;2023-08-08T15:02:02;30.00;30.80
1760;DHT22;877;46.266;20.062;2023-08-08T15:04:28;28.30;31.30
1760;DHT22;877;46.266;20.062;2023-08-08T15:06:54;28.50;32.80
1760;DHT22;877;46.266;20.062;2023-08-08T15:09:20;29.20;32.00
1760;DHT22;877;46.266;20.062;2023-08-08T15:11:46;30.00;32.10
1760;DHT22;877;46.266;20.062;2023-08-08T15:14:12;29.90;29.70
1760;DHT22;877;46.266;20.062;2023-08-08T15:16:38;30.20;31.90
1760;DHT22;877;46.266;20.062;2023-08-08T15:19:04;31.20;30.50
1760;DHT22;877;46.266;20.062;2023-08-08T15:21:29;31.80;29.70
1760;DHT22;877;46.266;20.062;2023-08-08T15:23:55;31.90;29.80
1760;DHT22;877;46.266;20.062;2023-08-08T15:26:21;31.00;30.70
1760;DHT22;877;46.266;20.062;2023-08-08T15:28:48;31.20;30.70
1760;DHT22;877;46.266;20.062;2023-08-08T15:31:14;29.60;29.90
1760;DHT22;877;46.266;20.062;2023-08-08T15:33:41;29.90;31.10
1760;DHT22;877;46.266;20.062;2023-08-08T15:36:07;28.00;32.20
1760;DHT22;877;46.266;20.062;2023-08-08T15:38:33;28.80;31.60
1760;DHT22;877;46.266;20.062;2023-08-08T15:40:59;27.40;33.90
1760;DHT22;877;46.266;20.062;2023-08-08T15:43:26;26.80;33.50
1760;DHT22;877;46.266;20.062;2023-08-08T15:45:52;25.40;36.50
1760;DHT22;877;46.266;20.062;2023-08-08T15:48:18;26.30;35.60
1760;DHT22;877;46.266;20.062;2023-08-08T15:50:43;27.20;34.30
1760;DHT22;877;46.266;20.062;2023-08-08T15:53:09;27.10;36.20
1760;DHT22;877;46.266;20.062;2023-08-08T15:55:36;27.60;32.60
1760;DHT22;877;46.266;20.062;2023-08-08T15:58:03;28.00;34.30
1760;DHT22;877;46.266;20.062;2023-08-08T16:00:29;28.60;34.50
1760;DHT22;877;46.266;20.062;2023-08-08T16:02:55;27.90;32.80